createdAt,value
2023-02-11T00:02:08.273Z,15.20
2023-02-11T00:04:38.147Z,16.73
2023-02-11T00:07:07.326Z,22.50
2023-02-11T00:09:38.775Z,15.90
2023-02-11T00:12:08.171Z,17.83
2023-02-11T00:14:39.154Z,18.35
2023-02-11T00:17:08.336Z,16.45
2023-02-11T00:19:37.676Z,18.70
2023-02-11T00:22:06.863Z,19.17
2023-02-11T00:24:38.232Z,18.85
2023-02-11T00:27:07.436Z,21.52
2023-02-11T00:29:37.769Z,21.23
2023-02-11T00:32:09.082Z,20.33
2023-02-11T00:34:39.233Z,15.60
2023-02-11T00:37:08.467Z,19.63
2023-02-11T00:39:39.291Z,22.10
2023-02-11T00:42:08.413Z,17.95
2023-02-11T00:44:37.842Z,18.20
2023-02-11T00:47:07.214Z,21.05
2023-02-11T00:49:37.046Z,22.33
2023-02-11T00:52:06.388Z,17.00
2023-02-11T00:54:38.507Z,22.48
2023-02-11T00:57:09.493Z,21.35
2023-02-11T00:59:39.116Z,16.33
2023-02-11T01:02:08.254Z,24.42
2023-02-11T01:07:07.913Z,24.75
2023-02-11T01:09:41.881Z,23.23
2023-02-11T01:12:11.357Z,24.80
2023-02-11T01:14:43.410Z,18.13
2023-02-11T01:17:13.631Z,21.60
2023-02-11T01:19:44.095Z,19.33
2023-02-11T01:22:13.285Z,24.52
2023-02-11T01:24:43.985Z,19.25
2023-02-11T01:27:13.259Z,17.65
2023-02-11T01:29:42.799Z,21.25
2023-02-11T01:32:12.122Z,22.38
2023-02-11T01:34:41.432Z,22.30
2023-02-11T01:37:11.081Z,17.05
2023-02-11T01:39:40.426Z,22.95
2023-02-11T01:42:15.284Z,18.30
2023-02-11T01:44:44.876Z,26.38
2023-02-11T01:47:13.993Z,21.05
2023-02-11T01:49:47.215Z,23.30
2023-02-11T01:52:22.243Z,22.38
2023-02-11T01:55:13.064Z,24.35
2023-02-11T01:57:49.482Z,20.98
2023-02-11T02:00:24.425Z,14.50
2023-02-11T02:02:59.987Z,18.45
2023-02-11T02:05:35.920Z,18.48
2023-02-11T02:08:10.929Z,16.42
2023-02-11T02:10:44.579Z,21.23
2023-02-11T02:13:15.841Z,17.08
2023-02-11T02:15:52.069Z,14.77
2023-02-11T02:18:35.161Z,18.15
2023-02-11T02:21:31.623Z,16.20
2023-02-11T02:24:33.685Z,18.38
2023-02-11T02:27:45.156Z,16.23
2023-02-11T02:30:51.049Z,22.67
2023-02-11T02:33:37.853Z,23.38
2023-02-11T02:36:19.483Z,22.13
2023-02-11T02:38:54.296Z,21.13
2023-02-11T02:41:28.448Z,22.58
2023-02-11T02:43:58.566Z,23.70
2023-02-11T02:46:30.826Z,18.00
2023-02-11T02:49:02.339Z,23.65
2023-02-11T02:52:05.172Z,20.17
2023-02-11T02:55:13.946Z,16.80
2023-02-11T02:58:05.228Z,20.88
2023-02-11T03:00:44.326Z,17.52
2023-02-11T03:03:24.999Z,17.45
2023-02-11T03:06:02.504Z,18.45
2023-02-11T03:08:38.203Z,18.65
2023-02-11T03:11:09.019Z,12.80
2023-02-11T03:13:40.887Z,20.48
2023-02-11T03:16:14.900Z,21.38
2023-02-11T03:18:50.583Z,11.68
2023-02-11T03:21:22.377Z,15.23
2023-02-11T03:23:55.208Z,14.88
2023-02-11T03:26:29.752Z,14.77
2023-02-11T03:29:06.497Z,18.42
2023-02-11T03:31:43.003Z,14.43
2023-02-11T03:34:16.757Z,15.98
2023-02-11T03:36:53.349Z,15.65
2023-02-11T03:39:26.956Z,18.08
2023-02-11T03:42:00.116Z,16.88
2023-02-11T03:44:36.133Z,18.45
2023-02-11T03:47:10.677Z,16.63
2023-02-11T03:49:41.616Z,19.05
2023-02-11T03:52:15.361Z,14.15
2023-02-11T03:54:47.059Z,22.38
2023-02-11T03:57:16.694Z,14.40
2023-02-11T03:59:53.804Z,18.60
2023-02-11T04:02:26.428Z,16.98
2023-02-11T04:04:55.679Z,17.73
2023-02-11T04:07:26.855Z,12.57
2023-02-11T04:09:56.157Z,17.40
2023-02-11T04:12:25.860Z,13.25
2023-02-11T04:14:54.940Z,14.48
2023-02-11T04:17:24.423Z,12.90
2023-02-11T04:19:53.616Z,13.73
2023-02-11T04:22:22.987Z,15.88
2023-02-11T04:24:53.970Z,11.48
2023-02-11T04:27:23.764Z,11.40
2023-02-11T04:29:52.921Z,12.20
2023-02-11T04:32:22.362Z,9.60
2023-02-11T04:34:51.976Z,9.57
2023-02-11T04:39:50.247Z,9.55
2023-02-11T04:42:21.134Z,8.57
2023-02-11T04:44:50.327Z,13.25
2023-02-11T04:47:19.929Z,8.23
2023-02-11T04:49:49.394Z,6.70
2023-02-11T04:52:18.720Z,7.90
2023-02-11T04:54:48.087Z,13.10
2023-02-11T04:57:17.431Z,7.80
2023-02-11T04:59:49.077Z,12.10
2023-02-11T05:02:18.605Z,9.77
2023-02-11T05:04:47.744Z,10.32
2023-02-11T05:07:17.163Z,10.50
2023-02-11T05:09:46.408Z,9.68
2023-02-11T05:12:41.179Z,9.45
2023-02-11T05:15:12.054Z,10.82
2023-02-11T05:17:41.629Z,7.40
2023-02-11T05:20:11.936Z,9.45
2023-02-11T05:22:41.600Z,9.60
2023-02-11T05:25:10.994Z,9.27
2023-02-11T05:30:12.215Z,7.35
2023-02-11T05:32:41.784Z,8.65
2023-02-11T05:35:10.808Z,9.25
2023-02-11T05:37:40.560Z,8.73
2023-02-11T05:40:11.122Z,8.68
2023-02-11T05:42:40.729Z,7.97
2023-02-11T05:45:11.787Z,7.32
2023-02-11T05:47:41.469Z,7.40
2023-02-11T05:50:11.052Z,9.45
2023-02-11T05:55:09.823Z,9.43
2023-02-11T05:57:39.148Z,6.32
2023-02-11T06:00:10.195Z,7.75
2023-02-11T06:02:46.071Z,8.20
2023-02-11T06:05:15.338Z,7.72
2023-02-11T06:07:44.704Z,7.18
2023-02-11T06:10:13.920Z,6.50
2023-02-11T06:12:43.287Z,6.85
2023-02-11T06:15:12.424Z,5.97
2023-02-11T06:17:41.746Z,11.32
2023-02-11T06:20:13.071Z,6.05
2023-02-11T06:22:42.635Z,7.43
2023-02-11T06:25:12.196Z,4.93
2023-02-11T06:27:41.682Z,7.53
2023-02-11T06:30:12.095Z,7.05
2023-02-11T06:32:44.789Z,7.30
2023-02-11T06:35:16.428Z,7.85
2023-02-11T06:37:46.966Z,6.70
2023-02-11T06:40:16.668Z,7.85
2023-02-11T06:45:15.134Z,7.82
2023-02-11T06:47:44.647Z,9.98
2023-02-11T06:50:15.974Z,6.78
2023-02-11T06:52:45.437Z,8.68
2023-02-11T06:55:14.531Z,11.77
2023-02-11T06:57:43.854Z,5.90
2023-02-11T07:00:14.588Z,5.70
2023-02-11T07:02:44.121Z,6.50
2023-02-11T07:05:14.870Z,7.38
2023-02-11T07:07:44.326Z,6.90
2023-02-11T07:10:13.468Z,7.35
2023-02-11T07:12:42.949Z,6.57
2023-02-11T07:15:12.250Z,6.30
2023-02-11T07:17:41.625Z,7.93
2023-02-11T07:20:12.522Z,7.30
2023-02-11T07:22:43.361Z,5.90
2023-02-11T07:25:12.637Z,6.43
2023-02-11T07:27:42.256Z,7.10
2023-02-11T07:30:13.209Z,5.93
2023-02-11T07:32:45.086Z,7.95
2023-02-11T07:35:14.845Z,8.13
2023-02-11T07:37:45.773Z,5.43
2023-02-11T07:40:15.960Z,5.13
2023-02-11T07:42:45.560Z,6.57
2023-02-11T07:45:14.590Z,5.32
2023-02-11T07:47:43.920Z,4.82
2023-02-11T07:50:13.516Z,5.55
2023-02-11T07:55:13.128Z,5.28
2023-02-11T07:57:42.640Z,4.90
2023-02-11T08:00:13.043Z,4.18
2023-02-11T08:02:43.544Z,5.00
2023-02-11T08:05:12.741Z,3.70
2023-02-11T08:07:42.018Z,5.28
2023-02-11T08:10:13.144Z,3.90
2023-02-11T08:12:43.354Z,3.88
2023-02-11T08:15:13.672Z,3.25
2023-02-11T08:17:43.521Z,3.80
2023-02-11T08:20:13.114Z,3.97
2023-02-11T08:22:42.653Z,3.65
2023-02-11T08:25:13.100Z,4.45
2023-02-11T08:27:43.597Z,2.67
2023-02-11T08:30:14.214Z,4.47
2023-02-11T08:32:46.532Z,2.95
2023-02-11T08:37:44.860Z,2.42
2023-02-11T08:40:15.701Z,3.15
2023-02-11T08:42:45.290Z,3.70
2023-02-11T08:45:14.523Z,3.30
2023-02-11T08:47:44.479Z,3.47
2023-02-11T08:50:13.725Z,4.00
2023-02-11T08:52:43.295Z,2.40
2023-02-11T08:55:15.133Z,2.20
2023-02-11T08:57:44.716Z,2.65
2023-02-11T09:00:15.085Z,2.90
2023-02-11T09:02:45.078Z,3.55
2023-02-11T09:05:14.552Z,2.90
2023-02-11T09:07:43.872Z,3.55
2023-02-11T09:10:14.477Z,3.55
2023-02-11T09:12:44.108Z,2.88
2023-02-11T09:15:15.634Z,3.25
2023-02-11T09:17:44.934Z,3.30
2023-02-11T09:20:14.067Z,3.83
2023-02-11T09:22:43.415Z,3.22
2023-02-11T09:25:14.592Z,3.63
2023-02-11T09:27:44.402Z,2.40
2023-02-11T09:30:15.374Z,3.13
2023-02-11T09:32:44.984Z,2.50
2023-02-11T09:35:14.068Z,2.10
2023-02-11T09:37:43.880Z,2.75
2023-02-11T09:40:15.599Z,2.42
2023-02-11T09:42:53.009Z,1.73
2023-02-11T09:45:25.759Z,1.85
2023-02-11T09:47:57.684Z,3.00
2023-02-11T09:50:31.467Z,1.83
2023-02-11T09:53:03.851Z,2.58
2023-02-11T09:55:39.454Z,2.88
2023-02-11T09:58:15.333Z,2.28
2023-02-11T10:00:49.973Z,2.47
2023-02-11T10:03:43.096Z,2.80
2023-02-11T10:06:33.911Z,2.60
2023-02-11T10:09:14.724Z,2.47
2023-02-11T10:11:53.696Z,1.67
2023-02-11T10:14:51.602Z,2.75
2023-02-11T10:17:27.790Z,2.30
2023-02-11T10:20:15.804Z,2.03
2023-02-11T10:22:50.491Z,3.28
2023-02-11T10:25:24.977Z,1.90
2023-02-11T10:27:59.199Z,2.20
2023-02-11T10:30:33.513Z,1.83
2023-02-11T10:33:08.266Z,2.38
2023-02-11T10:35:39.216Z,1.55
2023-02-11T10:38:09.720Z,2.00
2023-02-11T10:40:39.924Z,3.17
2023-02-11T10:43:14.783Z,3.90
2023-02-11T10:45:47.728Z,3.35
2023-02-11T10:48:43.117Z,4.07
2023-02-11T10:51:22.094Z,3.22
2023-02-11T10:54:13.833Z,3.20
2023-02-11T10:56:47.979Z,5.07
2023-02-11T10:59:28.121Z,5.75
2023-02-11T11:02:03.010Z,4.78
2023-02-11T11:04:40.748Z,5.70
2023-02-11T11:07:20.538Z,4.85
2023-02-11T11:09:53.619Z,4.68
2023-02-11T11:12:36.420Z,7.03
2023-02-11T11:15:19.972Z,4.07
2023-02-11T11:17:50.385Z,3.47
2023-02-11T11:20:27.363Z,4.95
2023-02-11T11:23:13.413Z,4.82
2023-02-11T11:25:46.053Z,3.03
2023-02-11T11:28:25.488Z,3.85
2023-02-11T11:30:58.811Z,5.18
2023-02-11T11:33:32.258Z,5.35
2023-02-11T11:36:05.789Z,3.63
2023-02-11T11:38:38.061Z,2.78
2023-02-11T11:41:24.127Z,3.78
2023-02-11T11:44:01.833Z,4.28
2023-02-11T11:46:35.185Z,5.15
2023-02-11T11:49:23.442Z,4.82
2023-02-11T11:52:03.721Z,2.85
2023-02-11T11:54:35.479Z,5.93
2023-02-11T11:57:17.550Z,3.30
2023-02-11T11:59:55.543Z,4.00
2023-02-11T12:05:25.488Z,4.20
2023-02-11T12:08:05.102Z,4.43
2023-02-11T12:10:49.919Z,5.75
2023-02-11T12:13:36.013Z,3.97
2023-02-11T12:16:16.102Z,4.78
2023-02-11T12:19:18.588Z,3.00
2023-02-11T12:21:57.081Z,4.07
2023-02-11T12:24:42.428Z,4.47
2023-02-11T12:27:19.844Z,4.53
2023-02-11T12:30:02.719Z,2.80
2023-02-11T12:32:44.677Z,3.00
2023-02-11T12:35:34.554Z,5.88
2023-02-11T12:38:33.015Z,4.35
2023-02-11T12:41:40.617Z,3.90
2023-02-11T12:44:19.131Z,7.07
2023-02-11T12:46:58.085Z,4.68
2023-02-11T12:49:42.002Z,4.28
2023-02-11T12:52:33.360Z,4.43
2023-02-11T12:55:09.035Z,4.10
2023-02-11T12:57:42.087Z,3.90
2023-02-11T13:00:18.609Z,2.58
2023-02-11T13:02:55.745Z,5.47
2023-02-11T13:05:30.961Z,3.03
2023-02-11T13:08:07.073Z,4.53
2023-02-11T13:10:39.592Z,4.05
2023-02-11T13:13:19.469Z,4.38
2023-02-11T13:15:53.293Z,4.80
2023-02-11T13:18:37.120Z,2.80
2023-02-11T13:21:36.180Z,7.38
2023-02-11T13:24:16.948Z,3.72
2023-02-11T13:26:55.334Z,5.38
2023-02-11T13:29:32.951Z,3.75
2023-02-11T13:32:09.902Z,3.50
2023-02-11T13:35:00.027Z,5.72
2023-02-11T13:37:37.624Z,4.55
2023-02-11T13:40:23.447Z,3.45
2023-02-11T13:42:55.683Z,4.13
2023-02-11T13:45:32.637Z,3.72
2023-02-11T13:48:03.993Z,4.50
2023-02-11T13:50:39.321Z,6.65
2023-02-11T13:53:10.008Z,6.97
2023-02-11T13:55:43.747Z,5.10
2023-02-11T13:58:37.357Z,6.00
2023-02-11T14:01:07.533Z,4.50
2023-02-11T14:03:57.299Z,5.07
2023-02-11T14:09:57.323Z,5.28
2023-02-11T14:12:36.236Z,6.93
2023-02-11T14:15:26.437Z,5.65
2023-02-11T14:17:55.848Z,5.85
2023-02-11T14:20:45.428Z,2.83
2023-02-11T14:23:31.098Z,3.88
2023-02-11T14:26:14.765Z,4.25
2023-02-11T14:28:46.876Z,5.82
2023-02-11T14:31:23.696Z,5.70
2023-02-11T14:34:17.197Z,4.85
2023-02-11T14:37:24.379Z,5.57
2023-02-11T14:40:06.958Z,5.80
2023-02-11T14:42:43.250Z,5.75
2023-02-11T14:45:23.014Z,5.53
2023-02-11T14:47:59.746Z,5.75
2023-02-11T14:50:35.570Z,6.47
2023-02-11T14:53:06.328Z,4.05
2023-02-11T14:55:41.253Z,5.53
2023-02-11T14:58:17.004Z,5.90
2023-02-11T15:00:55.039Z,6.72
2023-02-11T15:03:37.789Z,4.82
2023-02-11T15:06:22.429Z,3.83
2023-02-11T15:08:54.686Z,4.55
2023-02-11T15:11:26.455Z,4.18
2023-02-11T15:13:59.775Z,5.57
2023-02-11T15:16:31.132Z,5.35
2023-02-11T15:19:06.166Z,4.80
2023-02-11T15:21:38.053Z,6.03
2023-02-11T15:24:24.167Z,4.53
2023-02-11T15:27:01.790Z,6.28
2023-02-11T15:29:40.426Z,4.65
2023-02-11T15:32:17.176Z,4.88
2023-02-11T15:34:49.000Z,5.95
2023-02-11T15:37:23.104Z,5.55
2023-02-11T15:39:53.943Z,5.95
2023-02-11T15:42:26.565Z,5.22
2023-02-11T15:45:24.423Z,5.38
2023-02-11T15:47:58.064Z,5.75
2023-02-11T15:50:30.994Z,6.07
2023-02-11T15:53:03.953Z,7.47
2023-02-11T15:55:34.701Z,4.20
2023-02-11T15:58:04.016Z,4.72
2023-02-11T16:00:38.393Z,5.13
2023-02-11T16:03:09.008Z,7.85
2023-02-11T16:05:40.983Z,5.47
2023-02-11T16:08:24.640Z,4.63
2023-02-11T16:10:58.974Z,6.43
2023-02-11T16:13:30.866Z,7.10
2023-02-11T16:16:05.758Z,5.93
2023-02-11T16:18:40.260Z,4.88
2023-02-11T16:21:17.493Z,5.85
2023-02-11T16:23:52.823Z,4.50
2023-02-11T16:26:28.692Z,6.20
2023-02-11T16:29:14.224Z,4.38
2023-02-11T16:31:46.461Z,4.93
2023-02-11T16:34:19.900Z,4.90
2023-02-11T16:36:50.435Z,5.32
2023-02-11T16:39:22.418Z,5.68
2023-02-11T16:41:53.514Z,4.20
2023-02-11T16:44:23.223Z,4.55
2023-02-11T16:46:53.309Z,6.55
2023-02-11T16:49:27.895Z,3.20
2023-02-11T16:52:01.530Z,4.28
2023-02-11T16:54:31.484Z,4.43
2023-02-11T16:57:01.273Z,3.22
2023-02-11T16:59:30.338Z,2.88
2023-02-11T17:02:00.247Z,2.60
2023-02-11T17:04:33.859Z,4.03
2023-02-11T17:07:03.500Z,4.25
2023-02-11T17:09:32.729Z,2.78
2023-02-11T17:14:31.380Z,14.52
2023-02-11T17:17:01.885Z,8.32
2023-02-11T17:19:34.774Z,4.55
2023-02-11T17:22:05.034Z,3.15
2023-02-11T17:24:34.363Z,3.72
2023-02-11T17:27:03.738Z,3.05
2023-02-11T17:29:32.874Z,2.35
2023-02-11T17:32:02.224Z,2.47
2023-02-11T17:34:34.668Z,1.60
2023-02-11T17:37:09.240Z,3.00
2023-02-11T17:39:39.709Z,2.53
2023-02-11T17:42:11.657Z,2.20
2023-02-11T17:44:41.942Z,2.45
2023-02-11T17:47:11.399Z,2.55
2023-02-11T17:49:42.785Z,1.85
2023-02-11T17:52:12.259Z,2.30
2023-02-11T17:54:41.317Z,2.50
2023-02-11T17:57:14.843Z,2.60
2023-02-11T17:59:45.340Z,3.13
2023-02-11T18:02:14.734Z,3.00
2023-02-11T18:04:45.443Z,2.42
2023-02-11T18:07:14.948Z,2.05
2023-02-11T18:09:46.046Z,2.17
2023-02-11T18:12:17.922Z,2.83
2023-02-11T18:14:47.465Z,2.38
2023-02-11T18:17:16.960Z,2.70
2023-02-11T18:19:47.939Z,2.17
2023-02-11T18:22:18.255Z,2.30
2023-02-11T18:24:52.462Z,4.28
2023-02-11T18:27:22.935Z,4.15
2023-02-11T18:29:52.536Z,3.60
2023-02-11T18:32:22.030Z,2.90
2023-02-11T18:34:52.570Z,2.63
2023-02-11T18:37:22.090Z,3.97
2023-02-11T18:39:51.167Z,2.97
2023-02-11T18:42:20.701Z,3.05
2023-02-11T18:44:49.836Z,2.22
2023-02-11T18:47:19.326Z,2.67
2023-02-11T18:49:48.912Z,2.38
2023-02-11T18:54:51.796Z,2.58
2023-02-11T18:57:21.462Z,3.15
2023-02-11T18:59:50.891Z,3.58
2023-02-11T19:04:49.294Z,2.58
2023-02-11T19:07:21.678Z,2.55
2023-02-11T19:09:51.306Z,2.47
2023-02-11T19:12:20.882Z,2.47
2023-02-11T19:14:50.229Z,2.17
2023-02-11T19:17:19.619Z,3.10
2023-02-11T19:19:49.500Z,2.50
2023-02-11T19:22:20.887Z,1.95
2023-02-11T19:24:52.980Z,2.70
2023-02-11T19:27:22.581Z,2.28
2023-02-11T19:29:52.370Z,3.25
2023-02-11T19:34:51.928Z,2.90
2023-02-11T19:37:24.762Z,2.88
2023-02-11T19:39:55.226Z,2.47
2023-02-11T19:42:27.666Z,2.25
2023-02-11T19:44:57.419Z,2.67
2023-02-11T19:49:57.300Z,2.80
2023-02-11T19:52:30.082Z,2.60
2023-02-11T19:54:59.576Z,2.30
2023-02-11T19:57:30.676Z,4.32
2023-02-11T20:00:01.578Z,2.55
2023-02-11T20:02:41.613Z,2.70
2023-02-11T20:05:11.039Z,2.50
2023-02-11T20:07:41.964Z,2.80
2023-02-11T20:10:12.012Z,2.65
2023-02-11T20:12:44.039Z,3.15
2023-02-11T20:15:13.444Z,6.25
2023-02-11T20:17:43.083Z,3.53
2023-02-11T20:20:14.163Z,3.05
2023-02-11T20:22:47.064Z,2.72
2023-02-11T20:25:19.392Z,2.85
2023-02-11T20:27:49.224Z,2.97
2023-02-11T20:30:19.560Z,3.10
2023-02-11T20:32:52.856Z,4.20
2023-02-11T20:35:22.503Z,2.85
2023-02-11T20:37:53.273Z,3.35
2023-02-11T20:40:23.012Z,4.25
2023-02-11T20:45:21.661Z,3.75
2023-02-11T20:47:51.150Z,7.45
2023-02-11T20:50:21.297Z,3.47
2023-02-11T20:52:52.334Z,2.97
2023-02-11T20:55:22.643Z,2.75
2023-02-11T20:57:55.487Z,2.40
2023-02-11T21:00:24.795Z,2.92
2023-02-11T21:02:57.762Z,2.35
2023-02-11T21:05:27.297Z,2.40
2023-02-11T21:08:00.534Z,2.92
2023-02-11T21:10:32.546Z,3.35
2023-02-11T21:13:03.204Z,2.92
2023-02-11T21:15:32.721Z,2.90
2023-02-11T21:18:02.072Z,2.17
2023-02-11T21:20:31.257Z,3.85
2023-02-11T21:23:02.041Z,4.22
2023-02-11T21:25:31.558Z,2.90
2023-02-11T21:28:01.114Z,2.63
2023-02-11T21:30:30.763Z,3.65
2023-02-11T21:33:00.491Z,3.88
2023-02-11T21:35:29.516Z,4.47
2023-02-11T21:37:58.871Z,6.03
2023-02-11T21:40:29.715Z,3.78
2023-02-11T21:43:01.130Z,6.75
2023-02-11T21:45:32.306Z,6.00
2023-02-11T21:48:02.068Z,6.82
2023-02-11T21:50:32.924Z,4.60
2023-02-11T21:53:05.995Z,3.63
2023-02-11T21:55:38.094Z,2.35
2023-02-11T21:58:08.574Z,3.53
2023-02-11T22:00:37.968Z,4.65
2023-02-11T22:03:07.632Z,3.50
2023-02-11T22:05:40.335Z,4.72
2023-02-11T22:08:09.829Z,4.88
2023-02-11T22:10:40.413Z,4.90
2023-02-11T22:13:09.987Z,4.70
2023-02-11T22:15:39.039Z,4.18
2023-02-11T22:18:08.478Z,3.38
2023-02-11T22:20:37.868Z,3.90
2023-02-11T22:23:07.178Z,3.80
2023-02-11T22:25:39.048Z,4.00
2023-02-11T22:28:08.600Z,3.20
2023-02-11T22:30:38.072Z,2.10
2023-02-11T22:35:36.356Z,2.45
2023-02-11T22:38:05.932Z,2.83
2023-02-11T22:40:34.980Z,2.83
2023-02-11T22:43:06.160Z,2.33
2023-02-11T22:45:35.776Z,2.65
2023-02-11T22:48:05.382Z,2.47
2023-02-11T22:50:36.603Z,5.05
2023-02-11T22:53:06.008Z,2.90
2023-02-11T22:55:39.359Z,2.60
2023-02-11T22:58:10.216Z,2.05
2023-02-11T23:00:41.916Z,2.35
2023-02-11T23:03:13.466Z,3.60
2023-02-11T23:05:43.730Z,2.92
2023-02-11T23:08:13.839Z,3.53
2023-02-11T23:10:43.045Z,4.07
2023-02-11T23:13:13.771Z,4.57
2023-02-11T23:15:44.427Z,3.50
2023-02-11T23:18:14.901Z,6.18
2023-02-11T23:20:45.866Z,3.78
2023-02-11T23:23:15.749Z,5.05
2023-02-11T23:25:45.591Z,3.95
2023-02-11T23:28:16.624Z,3.58
2023-02-11T23:30:45.805Z,2.80
2023-02-11T23:33:15.139Z,3.60
2023-02-11T23:35:44.240Z,2.35
2023-02-11T23:38:13.578Z,2.40
2023-02-11T23:40:43.134Z,2.72
2023-02-11T23:43:12.466Z,3.83
2023-02-11T23:45:43.101Z,5.13
2023-02-11T23:48:12.600Z,9.00
2023-02-11T23:50:44.096Z,5.63
2023-02-11T23:53:13.730Z,77.32
2023-02-11T23:55:43.379Z,7.10
2023-02-11T23:58:14.697Z,10.38
